Time;durP1;ratioP1;P1;durP2;ratioP2;P2;SDS_P1;SDS_P2;PMS_P1;PMS_P2;Temp;Humidity;BMP_temperature;BMP_pressure;BME280_temperature;BME280_humidity;BME280_pressure;Samples;Min_cycle;Max_cycle;Signal;HPM_P1;HPM_P2
2023/05/27 00:02:06;;;;;;;23.73;7.10;;;9.30;99.90;;;;;;5082025;28;20162;-83
2023/05/27 00:04:31;;;;;;;33.88;8.00;;;9.20;99.90;;;;;;5083371;28;20103;-83
2023/05/27 00:06:57;;;;;;;19.75;6.78;;;9.20;99.90;;;;;;5075730;28;20024;-83
2023/05/27 00:09:23;;;;;;;24.60;7.15;;;9.20;99.90;;;;;;5087962;28;20476;-83
2023/05/27 00:11:48;;;;;;;21.45;7.53;;;9.20;99.90;;;;;;5070876;28;20035;-83
2023/05/27 00:14:14;;;;;;;20.50;7.40;;;9.20;99.90;;;;;;5074626;28;20055;-82
2023/05/27 00:16:39;;;;;;;23.80;7.00;;;9.20;99.90;;;;;;5079792;28;20450;-82
2023/05/27 00:19:06;;;;;;;30.52;7.75;;;9.10;99.90;;;;;;5075938;28;20024;-82
2023/05/27 00:21:32;;;;;;;18.40;6.82;;;9.10;99.90;;;;;;5070709;28;20731;-82
2023/05/27 00:23:57;;;;;;;22.92;7.60;;;9.10;99.90;;;;;;5081584;28;20031;-83
2023/05/27 00:26:23;;;;;;;18.67;6.30;;;9.00;99.90;;;;;;5091321;28;20501;-82
2023/05/27 00:28:49;;;;;;;24.77;7.65;;;9.00;99.90;;;;;;5073192;28;20505;-82
2023/05/27 00:31:15;;;;;;;23.30;7.78;;;9.00;99.90;;;;;;5097258;28;20063;-83
2023/05/27 00:33:43;;;;;;;17.90;6.68;;;8.90;99.90;;;;;;5074723;28;20515;-83
2023/05/27 00:36:09;;;;;;;24.73;6.88;;;8.90;99.90;;;;;;5072818;28;20423;-82
2023/05/27 00:38:35;;;;;;;17.67;6.65;;;8.80;99.90;;;;;;5077498;28;20039;-83
2023/05/27 00:41:03;;;;;;;28.50;7.47;;;8.80;99.90;;;;;;5074179;28;20492;-82
2023/05/27 00:43:30;;;;;;;18.48;7.22;;;8.80;99.90;;;;;;5072975;28;20476;-83
2023/05/27 00:45:57;;;;;;;19.58;7.07;;;8.70;99.90;;;;;;5070115;28;20032;-83
2023/05/27 00:48:22;;;;;;;17.00;6.90;;;8.70;99.90;;;;;;5088525;28;20120;-83
2023/05/27 00:50:48;;;;;;;24.05;8.30;;;8.70;99.90;;;;;;5085889;28;20068;-83
2023/05/27 00:53:16;;;;;;;33.90;9.43;;;8.70;99.90;;;;;;5081979;28;20163;-83
2023/05/27 00:55:42;;;;;;;18.63;7.05;;;8.60;99.90;;;;;;5088781;28;20028;-82
2023/05/27 00:58:09;;;;;;;16.58;6.43;;;8.60;99.90;;;;;;5073733;28;20031;-83
2023/05/27 01:00:37;;;;;;;24.52;7.85;;;8.60;99.90;;;;;;5088012;28;20020;-83
2023/05/27 01:03:03;;;;;;;21.63;7.13;;;8.50;99.90;;;;;;5076159;28;20039;-82
2023/05/27 01:05:29;;;;;;;24.60;7.13;;;8.50;99.90;;;;;;5086698;28;20054;-83
2023/05/27 01:08:07;;;;;;;19.75;7.05;;;8.50;99.90;;;;;;5091784;28;20062;-83
2023/05/27 01:10:53;;;;;;;25.60;8.18;;;8.50;99.90;;;;;;5063279;28;20036;-83
2023/05/27 01:13:46;;;;;;;27.85;8.27;;;8.50;99.90;;;;;;5075074;28;20029;-83
2023/05/27 01:19:37;;;;;;;19.75;7.43;;;8.40;99.90;;;;;;5079872;28;20534;-83
2023/05/27 01:22:04;;;;;;;21.00;7.72;;;8.40;99.90;;;;;;5079547;28;20143;-83
2023/05/27 01:24:33;;;;;;;22.00;8.02;;;8.40;99.90;;;;;;5080877;28;20060;-83
2023/05/27 01:27:01;;;;;;;20.30;7.88;;;8.40;99.90;;;;;;5073501;28;20020;-83
2023/05/27 01:29:30;;;;;;;20.75;7.18;;;8.40;99.90;;;;;;5097093;28;20098;-83
2023/05/27 01:32:16;;;;;;;15.73;6.63;;;8.40;99.90;;;;;;5094141;28;20159;-83
2023/05/27 01:35:05;;;;;;;17.55;6.18;;;8.40;99.90;;;;;;5084899;28;20035;-83
2023/05/27 01:37:36;;;;;;;15.55;6.60;;;8.40;99.90;;;;;;5067065;28;20031;-83
2023/05/27 01:40:06;;;;;;;20.35;6.78;;;8.30;99.90;;;;;;5075747;28;20136;-82
2023/05/27 01:42:35;;;;;;;12.52;5.65;;;8.30;99.90;;;;;;5087755;28;20024;-83
2023/05/27 01:45:05;;;;;;;17.90;6.50;;;8.30;99.90;;;;;;5074480;28;20111;-83
2023/05/27 01:47:31;;;;;;;17.60;6.43;;;8.30;99.90;;;;;;5091383;28;20028;-83
2023/05/27 01:49:56;;;;;;;17.27;5.72;;;8.30;99.90;;;;;;5078117;28;20500;-83
2023/05/27 01:52:22;;;;;;;20.90;6.93;;;8.30;99.90;;;;;;5084550;28;20032;-83
2023/05/27 01:54:48;;;;;;;13.73;5.47;;;8.20;99.90;;;;;;5085716;28;20027;-83
2023/05/27 01:57:13;;;;;;;21.42;6.60;;;8.20;99.90;;;;;;5078659;28;20478;-83
2023/05/27 01:59:42;;;;;;;23.80;7.82;;;8.20;99.90;;;;;;5082029;28;20099;-83
2023/05/27 02:02:07;;;;;;;19.58;6.82;;;8.10;99.90;;;;;;5088881;28;20054;-83
2023/05/27 02:04:33;;;;;;;17.05;6.45;;;8.10;99.90;;;;;;5089010;28;20020;-82
2023/05/27 02:06:59;;;;;;;15.25;5.10;;;8.10;99.90;;;;;;5056269;28;20112;-83
2023/05/27 02:09:25;;;;;;;14.32;6.55;;;8.10;99.90;;;;;;5089290;28;20061;-82
2023/05/27 02:11:51;;;;;;;17.92;6.30;;;8.10;99.90;;;;;;5072573;28;20036;-83
2023/05/27 02:14:17;;;;;;;15.60;6.63;;;8.00;99.90;;;;;;5070260;28;20539;-83
2023/05/27 02:16:43;;;;;;;15.15;6.55;;;8.00;99.90;;;;;;5082286;28;20036;-83
2023/05/27 02:19:09;;;;;;;19.23;6.03;;;8.00;99.90;;;;;;5066211;28;20030;-83
2023/05/27 02:21:35;;;;;;;24.60;7.28;;;8.00;99.90;;;;;;5095078;28;20092;-83
2023/05/27 02:24:04;;;;;;;15.73;6.85;;;8.00;99.90;;;;;;5080945;28;20036;-83
2023/05/27 02:26:30;;;;;;;16.52;5.95;;;8.00;99.90;;;;;;5075774;28;20043;-84
2023/05/27 02:28:55;;;;;;;20.13;7.28;;;8.00;99.90;;;;;;5078263;28;20032;-83
2023/05/27 02:31:21;;;;;;;16.83;6.70;;;8.00;99.90;;;;;;5089775;28;20035;-83
2023/05/27 02:33:47;;;;;;;16.67;6.32;;;7.90;99.90;;;;;;5075717;28;20052;-83
2023/05/27 02:36:13;;;;;;;15.30;5.78;;;7.90;99.90;;;;;;5076746;28;20054;-84
2023/05/27 02:38:39;;;;;;;13.68;6.35;;;7.90;99.90;;;;;;5086818;28;20028;-84
2023/05/27 02:41:04;;;;;;;17.98;6.78;;;7.80;99.90;;;;;;5093518;28;20544;-84
2023/05/27 02:43:30;;;;;;;12.40;6.28;;;7.80;99.90;;;;;;5079557;28;20168;-83
2023/05/27 02:45:56;;;;;;;16.50;6.40;;;7.80;99.90;;;;;;5079251;28;20024;-84
2023/05/27 02:48:22;;;;;;;20.25;7.20;;;7.80;99.90;;;;;;5076505;28;20035;-84
2023/05/27 02:50:48;;;;;;;14.10;6.25;;;7.70;99.90;;;;;;5077042;28;20324;-83
2023/05/27 02:53:14;;;;;;;11.75;5.25;;;7.70;99.90;;;;;;5078472;28;20159;-84
2023/05/27 02:55:40;;;;;;;17.27;6.93;;;7.70;99.90;;;;;;5073843;28;20153;-85
2023/05/27 02:58:06;;;;;;;16.63;7.35;;;7.70;99.90;;;;;;5084047;28;20039;-83
2023/05/27 03:00:33;;;;;;;17.75;7.05;;;7.70;99.90;;;;;;5065245;28;20032;-84
2023/05/27 03:02:59;;;;;;;19.73;7.70;;;7.70;99.90;;;;;;5082998;28;20066;-84
2023/05/27 03:05:24;;;;;;;24.48;9.45;;;7.60;99.90;;;;;;5084070;28;20058;-84
2023/05/27 03:07:50;;;;;;;19.77;8.82;;;7.60;99.90;;;;;;5090114;28;20485;-84
2023/05/27 03:10:16;;;;;;;23.75;8.82;;;7.70;99.90;;;;;;5081179;28;20039;-83
2023/05/27 03:12:41;;;;;;;22.40;8.30;;;7.70;99.90;;;;;;5086399;28;20492;-84
2023/05/27 03:15:07;;;;;;;18.15;7.10;;;7.70;99.90;;;;;;5078883;28;20024;-84
2023/05/27 03:17:37;;;;;;;15.32;7.38;;;7.70;99.90;;;;;;5082926;28;20681;-84
2023/05/27 03:20:03;;;;;;;15.85;6.75;;;7.60;99.90;;;;;;5081531;28;20178;-84
2023/05/27 03:22:29;;;;;;;17.35;7.68;;;7.60;99.90;;;;;;5070663;28;20036;-83
2023/05/27 03:24:54;;;;;;;20.25;7.80;;;7.60;99.90;;;;;;5071553;28;20044;-83
2023/05/27 03:27:21;;;;;;;18.20;7.47;;;7.50;99.90;;;;;;5079385;28;20028;-83
2023/05/27 03:29:47;;;;;;;18.75;7.70;;;7.50;99.90;;;;;;5095810;28;20035;-84
2023/05/27 03:32:13;;;;;;;14.55;6.22;;;7.50;99.90;;;;;;5075403;28;20044;-84
2023/05/27 03:34:39;;;;;;;16.15;6.15;;;7.50;99.90;;;;;;5073611;28;20081;-84
2023/05/27 03:37:04;;;;;;;16.05;7.43;;;7.50;99.90;;;;;;5073067;28;20392;-83
2023/05/27 03:39:30;;;;;;;19.02;6.85;;;7.60;99.90;;;;;;5071652;28;20532;-83
2023/05/27 03:41:56;;;;;;;18.38;7.38;;;7.50;99.90;;;;;;5076563;28;20024;-85
2023/05/27 03:44:22;;;;;;;17.10;6.40;;;7.60;99.90;;;;;;5069755;28;20055;-84
2023/05/27 03:46:47;;;;;;;16.45;6.53;;;7.60;99.90;;;;;;5073206;28;20052;-84
2023/05/27 03:49:13;;;;;;;21.02;8.52;;;7.60;99.90;;;;;;5080472;28;20512;-84
2023/05/27 03:51:38;;;;;;;17.75;6.38;;;7.50;99.90;;;;;;5083910;28;20441;-84
2023/05/27 03:54:05;;;;;;;19.42;6.43;;;7.50;99.90;;;;;;5082444;28;20031;-84
2023/05/27 03:56:31;;;;;;;16.65;6.85;;;7.60;99.90;;;;;;5061028;28;20111;-84
2023/05/27 03:58:56;;;;;;;14.15;5.88;;;7.60;99.90;;;;;;5078116;28;20116;-84
2023/05/27 04:01:22;;;;;;;14.75;7.03;;;7.60;99.90;;;;;;5072954;28;20474;-84
2023/05/27 04:03:48;;;;;;;14.65;5.90;;;7.60;99.90;;;;;;5070282;28;20028;-84
2023/05/27 04:06:15;;;;;;;14.82;6.30;;;7.60;99.90;;;;;;5078151;28;20055;-84
2023/05/27 04:08:41;;;;;;;14.38;6.50;;;7.60;99.90;;;;;;5084729;28;20028;-84
2023/05/27 04:11:09;;;;;;;21.92;7.35;;;7.70;99.90;;;;;;5079650;28;20063;-84
2023/05/27 04:13:35;;;;;;;15.23;7.00;;;7.70;99.90;;;;;;5081511;28;20548;-84
2023/05/27 04:16:01;;;;;;;27.55;8.30;;;7.70;99.90;;;;;;5074600;28;20115;-84
2023/05/27 04:18:26;;;;;;;22.30;7.40;;;7.80;99.90;;;;;;5078325;28;20031;-84
2023/05/27 04:20:52;;;;;;;18.38;6.85;;;7.80;99.90;;;;;;5057049;28;20504;-84
2023/05/27 04:23:18;;;;;;;16.52;6.88;;;7.80;99.90;;;;;;5083160;28;20187;-84
2023/05/27 04:25:43;;;;;;;12.25;5.65;;;7.80;99.90;;;;;;5083496;28;20509;-84
2023/05/27 04:28:09;;;;;;;21.75;7.05;;;7.90;99.90;;;;;;5077301;28;20026;-84
2023/05/27 04:30:35;;;;;;;17.27;6.72;;;7.90;99.90;;;;;;5084737;28;20174;-84
2023/05/27 04:33:07;;;;;;;14.63;6.55;;;8.00;99.90;;;;;;5085968;28;20047;-84
2023/05/27 04:35:33;;;;;;;17.52;7.07;;;8.00;99.90;;;;;;5081722;28;20052;-84
2023/05/27 04:38:00;;;;;;;15.98;6.45;;;8.00;99.90;;;;;;5070546;28;20110;-84
2023/05/27 04:40:29;;;;;;;17.70;7.43;;;8.00;99.90;;;;;;5081243;28;20025;-84
2023/05/27 04:42:55;;;;;;;16.17;6.90;;;8.00;99.90;;;;;;5083925;28;20130;-84
2023/05/27 04:45:21;;;;;;;14.40;6.38;;;8.10;99.90;;;;;;5078479;28;20035;-84
2023/05/27 04:47:47;;;;;;;13.82;5.57;;;8.20;99.90;;;;;;5089486;28;20456;-84
2023/05/27 04:50:13;;;;;;;13.20;6.30;;;8.20;99.90;;;;;;5072062;28;20478;-84
2023/05/27 04:52:40;;;;;;;17.73;6.55;;;8.30;99.90;;;;;;5086298;28;20047;-84
2023/05/27 04:55:09;;;;;;;25.17;7.95;;;8.40;99.90;;;;;;5079177;28;20563;-84
2023/05/27 04:57:35;;;;;;;18.75;7.25;;;8.40;99.90;;;;;;5077220;28;20060;-84
2023/05/27 05:02:39;;;;;;;18.70;6.65;;;8.60;99.90;;;;;;5082199;28;20042;-84
2023/05/27 05:05:09;;;;;;;23.92;8.02;;;8.70;99.90;;;;;;5087676;28;20036;-84
2023/05/27 05:07:39;;;;;;;34.42;9.65;;;8.80;99.90;;;;;;5080102;28;20029;-84
2023/05/27 05:10:07;;;;;;;44.63;10.63;;;8.90;99.90;;;;;;5084374;28;20031;-84
2023/05/27 05:12:32;;;;;;;43.72;9.55;;;9.10;99.90;;;;;;5087885;28;20115;-84
2023/05/27 05:14:58;;;;;;;30.45;9.32;;;9.20;99.90;;;;;;5088170;28;20115;-86
2023/05/27 05:17:24;;;;;;;36.35;10.30;;;9.30;99.90;;;;;;5081912;28;20024;-84
2023/05/27 05:19:51;;;;;;;35.25;9.80;;;9.40;99.90;;;;;;5078432;28;20466;-83
2023/05/27 05:22:18;;;;;;;27.02;8.95;;;9.50;99.90;;;;;;5081452;28;20028;-84
2023/05/27 05:24:47;;;;;;;31.02;9.13;;;9.60;99.90;;;;;;5086252;28;20048;-84
2023/05/27 05:27:13;;;;;;;25.00;8.25;;;9.70;99.90;;;;;;5093760;28;20024;-84
2023/05/27 05:29:38;;;;;;;45.65;10.23;;;9.70;99.90;;;;;;5080718;28;20492;-84
2023/05/27 05:32:05;;;;;;;31.63;8.43;;;9.80;99.90;;;;;;5083927;28;20119;-84
2023/05/27 05:34:31;;;;;;;35.40;8.32;;;9.90;99.90;;;;;;5081865;28;20048;-83
2023/05/27 05:36:57;;;;;;;29.63;8.40;;;10.00;99.90;;;;;;5073153;28;21275;-84
2023/05/27 05:39:23;;;;;;;32.75;9.13;;;10.00;99.90;;;;;;5079581;28;20086;-84
2023/05/27 05:41:49;;;;;;;29.80;9.10;;;10.10;99.90;;;;;;5080432;28;20037;-83
2023/05/27 05:44:16;;;;;;;25.48;8.95;;;10.10;99.90;;;;;;5089397;28;20046;-84
2023/05/27 05:46:41;;;;;;;36.03;9.73;;;10.20;99.90;;;;;;5072886;28;20481;-83
2023/05/27 05:49:07;;;;;;;38.60;7.90;;;10.30;99.90;;;;;;5083041;28;20024;-83
2023/05/27 05:51:33;;;;;;;24.63;8.05;;;10.30;99.90;;;;;;5079794;28;20422;-83
2023/05/27 05:53:59;;;;;;;26.67;7.22;;;10.40;99.90;;;;;;5084225;28;20035;-83
2023/05/27 05:56:25;;;;;;;23.17;7.20;;;10.40;99.90;;;;;;5077195;28;20077;-83
2023/05/27 05:58:54;;;;;;;24.65;7.00;;;10.40;99.90;;;;;;5076694;28;20393;-84
2023/05/27 06:01:20;;;;;;;21.73;6.22;;;10.40;99.90;;;;;;5079742;28;20385;-83
2023/05/27 06:03:45;;;;;;;35.67;7.25;;;10.50;99.90;;;;;;5075956;28;20028;-84
2023/05/27 06:06:11;;;;;;;24.00;7.15;;;10.50;99.90;;;;;;5083059;28;20039;-83
2023/05/27 06:08:37;;;;;;;27.88;7.20;;;10.60;99.90;;;;;;5090278;28;20081;-83
2023/05/27 06:11:03;;;;;;;24.65;6.40;;;10.70;99.90;;;;;;5081085;28;20040;-84
2023/05/27 06:13:28;;;;;;;28.30;7.60;;;10.70;99.90;;;;;;5079403;28;20465;-84
2023/05/27 06:15:55;;;;;;;25.55;8.63;;;10.80;99.90;;;;;;5087376;28;20032;-84
2023/05/27 06:18:21;;;;;;;33.72;8.90;;;10.80;99.90;;;;;;5082257;28;20027;-83
2023/05/27 06:20:47;;;;;;;27.00;6.97;;;10.90;99.90;;;;;;5071020;28;20036;-84
2023/05/27 06:23:12;;;;;;;27.88;6.43;;;10.90;99.90;;;;;;5086735;28;20020;-83
2023/05/27 06:25:38;;;;;;;32.47;8.23;;;11.00;99.90;;;;;;5086588;28;20048;-83
2023/05/27 06:28:04;;;;;;;31.58;6.95;;;11.00;99.90;;;;;;5082066;28;20020;-83
2023/05/27 06:30:31;;;;;;;28.00;8.30;;;11.10;99.90;;;;;;5077058;28;20036;-83
2023/05/27 06:32:57;;;;;;;25.35;7.10;;;11.10;99.90;;;;;;5069480;28;20055;-83
2023/05/27 06:35:22;;;;;;;32.88;7.32;;;11.20;99.90;;;;;;5080982;28;20489;-84
2023/05/27 06:37:48;;;;;;;24.20;7.80;;;11.20;99.90;;;;;;5078891;28;20028;-83
2023/05/27 06:40:13;;;;;;;30.67;8.75;;;11.30;99.90;;;;;;5088404;28;20032;-83
2023/05/27 06:42:39;;;;;;;29.42;6.95;;;11.30;99.90;;;;;;5067728;28;20441;-82
2023/05/27 06:45:05;;;;;;;28.95;7.63;;;11.30;99.90;;;;;;5077143;28;20025;-83
2023/05/27 06:47:31;;;;;;;25.65;6.82;;;11.30;99.90;;;;;;5077639;28;20072;-83
2023/05/27 06:49:56;;;;;;;31.98;7.97;;;11.40;99.90;;;;;;5074243;28;20444;-83
2023/05/27 06:52:22;;;;;;;35.53;8.02;;;11.40;99.90;;;;;;5064818;28;20024;-83
2023/05/27 06:54:48;;;;;;;29.38;7.38;;;11.50;99.90;;;;;;5079498;28;20028;-83
2023/05/27 06:57:13;;;;;;;32.88;7.68;;;11.50;99.90;;;;;;5080261;28;20277;-83
2023/05/27 06:59:40;;;;;;;33.88;7.95;;;11.60;99.90;;;;;;5081455;28;20569;-83
2023/05/27 07:02:06;;;;;;;43.20;7.85;;;11.70;99.90;;;;;;5075190;28;20024;-83
2023/05/27 07:04:35;;;;;;;23.23;6.30;;;11.70;99.90;;;;;;5079850;28;20028;-83
2023/05/27 07:07:00;;;;;;;18.83;6.32;;;11.80;99.90;;;;;;5082567;28;20020;-83
2023/05/27 07:09:26;;;;;;;31.80;8.32;;;11.80;99.90;;;;;;5081877;28;20020;-83
2023/05/27 07:11:51;;;;;;;24.67;6.63;;;11.90;99.90;;;;;;5087706;28;20040;-83
2023/05/27 07:14:17;;;;;;;43.63;8.13;;;11.90;99.90;;;;;;5086836;28;20084;-82
2023/05/27 07:16:42;;;;;;;28.17;7.47;;;12.00;99.90;;;;;;5075368;28;20021;-83
2023/05/27 07:19:08;;;;;;;28.65;7.88;;;12.10;99.90;;;;;;5062917;28;20032;-82
2023/05/27 07:21:33;;;;;;;26.10;6.72;;;12.10;99.90;;;;;;5069214;28;20108;-82
2023/05/27 07:24:03;;;;;;;36.17;7.70;;;12.10;99.90;;;;;;5083190;28;20501;-83
2023/05/27 07:26:30;;;;;;;30.25;7.80;;;12.10;99.90;;;;;;5077633;28;20397;-83
2023/05/27 07:28:58;;;;;;;33.60;6.65;;;12.20;99.90;;;;;;5077392;28;20111;-83
2023/05/27 07:31:24;;;;;;;25.15;6.75;;;12.20;99.90;;;;;;5054377;28;20064;-84
2023/05/27 07:33:50;;;;;;;30.33;7.38;;;12.30;99.90;;;;;;5065810;28;20377;-82
2023/05/27 07:36:15;;;;;;;37.88;8.30;;;12.30;99.90;;;;;;5074728;28;20107;-81
2023/05/27 07:38:42;;;;;;;30.42;7.72;;;12.30;99.90;;;;;;5073125;28;20021;-82
2023/05/27 07:41:08;;;;;;;36.75;7.68;;;12.40;99.90;;;;;;5071423;28;20050;-82
2023/05/27 07:43:34;;;;;;;19.48;5.88;;;12.50;99.90;;;;;;5078108;28;20081;-82
2023/05/27 07:46:00;;;;;;;30.80;7.30;;;12.60;99.90;;;;;;5068173;28;20032;-83
2023/05/27 07:48:26;;;;;;;35.13;7.28;;;12.60;99.90;;;;;;5069406;28;20459;-82
2023/05/27 07:50:52;;;;;;;45.25;8.93;;;12.60;99.90;;;;;;5073710;28;20041;-83
2023/05/27 07:53:18;;;;;;;20.65;5.82;;;12.70;99.90;;;;;;5075395;28;20032;-82
2023/05/27 07:55:43;;;;;;;32.03;6.57;;;12.70;99.90;;;;;;5078321;28;20055;-83
2023/05/27 07:58:09;;;;;;;35.20;7.15;;;12.70;99.90;;;;;;5082351;28;20024;-82
2023/05/27 08:00:34;;;;;;;21.65;6.28;;;12.80;99.90;;;;;;5069288;28;20024;-83
2023/05/27 08:03:00;;;;;;;33.10;7.45;;;12.90;99.90;;;;;;5081073;28;20166;-82
2023/05/27 08:05:25;;;;;;;35.00;7.43;;;13.00;99.90;;;;;;5075554;28;20544;-83
2023/05/27 08:07:51;;;;;;;24.20;6.70;;;13.10;99.90;;;;;;5081431;28;20069;-81
2023/05/27 08:10:17;;;;;;;22.77;6.40;;;13.10;99.90;;;;;;5082879;28;20024;-83
2023/05/27 08:12:43;;;;;;;27.65;6.85;;;13.20;99.90;;;;;;5074254;28;20036;-82
2023/05/27 08:15:09;;;;;;;27.38;7.47;;;13.30;99.90;;;;;;5090097;28;20024;-84
2023/05/27 08:17:34;;;;;;;34.03;6.18;;;13.40;99.90;;;;;;5059644;28;20025;-83
2023/05/27 08:20:00;;;;;;;22.13;6.00;;;13.50;99.90;;;;;;5071436;28;20028;-83
2023/05/27 08:22:25;;;;;;;26.25;6.00;;;13.40;99.90;;;;;;5071527;28;20104;-82
2023/05/27 08:24:51;;;;;;;31.10;6.53;;;13.50;99.90;;;;;;5074319;28;20052;-81
2023/05/27 08:27:18;;;;;;;20.38;6.00;;;13.50;99.90;;;;;;5080548;28;20031;-82
2023/05/27 08:29:45;;;;;;;23.58;6.10;;;13.50;99.90;;;;;;5091146;28;20110;-85
2023/05/27 08:32:10;;;;;;;20.05;5.82;;;13.60;99.90;;;;;;5084692;28;20181;-82
2023/05/27 08:34:36;;;;;;;24.33;6.88;;;13.70;99.90;;;;;;5073871;28;20452;-82
2023/05/27 08:37:03;;;;;;;26.65;5.88;;;13.60;99.90;;;;;;5079820;28;20028;-82
2023/05/27 08:39:28;;;;;;;21.17;5.35;;;13.60;99.90;;;;;;5081939;28;20044;-82
2023/05/27 08:41:54;;;;;;;33.28;6.00;;;13.60;99.90;;;;;;5081940;28;20093;-82
2023/05/27 08:44:23;;;;;;;24.33;5.55;;;13.60;99.90;;;;;;5084105;28;20031;-82
2023/05/27 08:46:50;;;;;;;29.63;5.55;;;13.70;99.90;;;;;;5081625;28;20032;-82
2023/05/27 08:49:16;;;;;;;17.20;5.18;;;13.80;99.90;;;;;;5079364;28;20287;-82
2023/05/27 08:51:44;;;;;;;20.63;5.78;;;13.80;99.90;;;;;;5079360;28;20048;-81
2023/05/27 08:54:10;;;;;;;27.60;5.32;;;13.90;99.90;;;;;;5098986;28;20036;-81
2023/05/27 08:56:36;;;;;;;33.85;6.82;;;13.90;99.90;;;;;;5102927;28;20380;-82
2023/05/27 08:59:02;;;;;;;34.75;6.03;;;14.00;99.90;;;;;;5093128;28;20573;-82
2023/05/27 09:01:30;;;;;;;25.02;6.13;;;14.10;99.90;;;;;;5073038;28;20028;-82
2023/05/27 09:03:57;;;;;;;24.48;6.32;;;14.20;99.90;;;;;;5071026;28;20028;-82
2023/05/27 09:06:23;;;;;;;18.90;5.00;;;14.30;99.90;;;;;;5078815;28;20388;-82
2023/05/27 09:08:48;;;;;;;18.10;5.93;;;14.40;99.90;;;;;;5088307;28;20066;-82
2023/05/27 09:11:26;;;;;;;21.33;5.10;;;14.40;99.90;;;;;;5073966;28;20396;-82
2023/05/27 09:13:58;;;;;;;20.48;5.63;;;14.50;99.90;;;;;;5090042;28;20021;-83
2023/05/27 09:16:23;;;;;;;28.90;6.95;;;14.50;99.90;;;;;;5084899;28;20039;-82
2023/05/27 09:18:49;;;;;;;32.08;6.25;;;14.50;99.90;;;;;;5091279;28;20024;-81
2023/05/27 09:21:15;;;;;;;25.70;6.07;;;14.60;99.90;;;;;;5098204;28;20028;-81
2023/05/27 09:23:42;;;;;;;27.67;6.05;;;14.60;99.90;;;;;;5096559;28;20473;-82
2023/05/27 09:26:10;;;;;;;19.52;5.18;;;14.70;99.90;;;;;;5072555;28;20066;-81
2023/05/27 09:28:37;;;;;;;30.30;6.07;;;14.70;99.90;;;;;;5096883;28;20058;-81
2023/05/27 09:31:04;;;;;;;33.33;6.55;;;14.70;99.90;;;;;;5088170;28;20082;-81
2023/05/27 09:33:37;;;;;;;25.25;5.40;;;14.80;99.90;;;;;;5062888;28;20036;-80
2023/05/27 09:36:03;;;;;;;23.20;5.57;;;14.80;99.90;;;;;;5078679;28;20048;-81
2023/05/27 09:38:30;;;;;;;30.20;6.40;;;14.80;99.90;;;;;;5082590;28;20125;-81
2023/05/27 09:40:57;;;;;;;33.28;6.63;;;14.90;99.90;;;;;;5071506;28;20039;-82
2023/05/27 09:43:25;;;;;;;24.08;6.13;;;15.00;99.90;;;;;;5080380;28;20032;-84
2023/05/27 09:45:55;;;;;;;27.10;6.53;;;15.10;99.90;;;;;;5081302;28;20397;-82
2023/05/27 09:48:23;;;;;;;22.55;5.55;;;15.10;99.90;;;;;;5075620;28;20478;-81
2023/05/27 09:50:53;;;;;;;26.23;5.90;;;15.20;99.90;;;;;;5072992;28;20127;-81
2023/05/27 09:53:22;;;;;;;28.48;6.85;;;15.20;99.90;;;;;;5074799;28;20491;-81
2023/05/27 09:55:52;;;;;;;23.80;5.65;;;15.10;99.90;;;;;;5076905;28;20024;-84
2023/05/27 09:58:18;;;;;;;23.30;6.38;;;15.20;99.90;;;;;;5070126;28;20028;-81
2023/05/27 10:00:45;;;;;;;31.27;6.78;;;15.30;99.90;;;;;;5072109;28;20067;-82
2023/05/27 10:03:12;;;;;;;19.58;5.55;;;15.40;99.90;;;;;;5078874;28;20059;-81
2023/05/27 10:05:38;;;;;;;21.73;5.47;;;15.40;99.90;;;;;;5069461;28;20103;-81
2023/05/27 10:08:05;;;;;;;27.58;5.97;;;15.40;99.90;;;;;;5078345;28;20082;-81
2023/05/27 10:10:32;;;;;;;32.22;6.43;;;15.50;99.90;;;;;;5091366;28;20044;-81
2023/05/27 10:12:59;;;;;;;27.25;5.57;;;15.40;99.90;;;;;;5077160;28;20051;-82
2023/05/27 10:15:31;;;;;;;31.20;6.55;;;15.50;99.90;;;;;;5081339;28;20028;-82
2023/05/27 10:18:02;;;;;;;31.27;6.85;;;15.60;99.90;;;;;;5069763;28;20470;-81
2023/05/27 10:20:50;;;;;;;19.58;5.35;;;15.60;99.90;;;;;;5078609;28;20455;-82
2023/05/27 10:23:21;;;;;;;25.60;5.88;;;15.60;99.90;;;;;;5074595;28;20097;-82
2023/05/27 10:25:54;;;;;;;19.20;6.18;;;15.60;99.90;;;;;;5080488;28;20400;-82
2023/05/27 10:28:31;;;;;;;19.52;5.20;;;15.60;99.90;;;;;;5075045;28;20039;-80
2023/05/27 10:31:05;;;;;;;29.23;6.25;;;15.60;99.90;;;;;;5085417;28;20458;-85
2023/05/27 10:33:52;;;;;;;19.48;5.72;;;15.60;99.90;;;;;;5076495;28;20028;-82
2023/05/27 10:36:25;;;;;;;23.98;6.25;;;15.60;99.90;;;;;;5079088;28;20043;-82
2023/05/27 10:39:00;;;;;;;18.33;5.10;;;15.60;99.90;;;;;;5078743;28;20032;-82
2023/05/27 10:41:29;;;;;;;27.73;6.65;;;15.60;99.90;;;;;;5071537;28;20387;-82
2023/05/27 10:43:57;;;;;;;24.23;5.88;;;15.70;99.90;;;;;;5078282;28;20101;-82
2023/05/27 10:46:26;;;;;;;25.45;5.93;;;15.80;99.90;;;;;;5074507;28;20078;-83
2023/05/27 10:48:55;;;;;;;27.17;5.90;;;15.90;99.90;;;;;;5082872;28;20485;-84
2023/05/27 10:51:31;;;;;;;27.55;6.07;;;15.90;99.90;;;;;;5071358;28;20081;-82
2023/05/27 10:53:58;;;;;;;29.30;5.47;;;15.90;99.90;;;;;;5067799;28;20057;-80
2023/05/27 10:56:25;;;;;;;24.70;6.13;;;15.90;99.90;;;;;;5079368;28;20024;-81
2023/05/27 10:58:52;;;;;;;28.23;6.43;;;15.90;99.90;;;;;;5087027;28;20020;-81
2023/05/27 11:01:22;;;;;;;26.25;6.57;;;16.00;99.90;;;;;;5078694;28;20032;-81
2023/05/27 11:03:49;;;;;;;23.02;5.53;;;16.00;99.90;;;;;;5077792;28;20081;-81
2023/05/27 11:06:16;;;;;;;26.52;5.35;;;16.10;99.90;;;;;;5078347;28;20099;-80
2023/05/27 11:08:42;;;;;;;21.42;5.00;;;16.20;99.90;;;;;;5073140;28;20056;-80
2023/05/27 11:11:12;;;;;;;21.02;5.35;;;16.20;99.90;;;;;;5071515;28;21364;-82
2023/05/27 11:13:45;;;;;;;21.90;6.18;;;16.20;99.90;;;;;;5082616;28;20022;-82
2023/05/27 11:16:14;;;;;;;20.55;5.57;;;16.20;99.90;;;;;;5081500;28;20537;-81
2023/05/27 11:18:42;;;;;;;24.23;6.13;;;16.20;99.90;;;;;;5082560;28;20119;-80
2023/05/27 11:21:10;;;;;;;21.27;5.47;;;16.20;99.90;;;;;;5076479;28;20392;-80
2023/05/27 11:23:43;;;;;;;21.13;5.60;;;16.30;99.90;;;;;;5074502;28;20029;-82
2023/05/27 11:26:29;;;;;;;20.85;5.28;;;16.30;99.90;;;;;;5066828;28;20040;-81
2023/05/27 11:28:58;;;;;;;14.63;4.78;;;16.30;99.90;;;;;;5082816;28;20101;-80
2023/05/27 11:31:29;;;;;;;23.15;4.75;;;16.30;99.90;;;;;;5072496;28;20485;-81
2023/05/27 11:33:54;;;;;;;17.50;5.00;;;16.30;99.90;;;;;;5059076;28;20035;-80
2023/05/27 11:36:21;;;;;;;26.10;5.70;;;16.40;99.90;;;;;;5079963;28;20019;-80
2023/05/27 11:38:53;;;;;;;18.13;4.85;;;16.50;99.90;;;;;;5066130;28;20044;-80
2023/05/27 11:41:21;;;;;;;22.05;5.32;;;16.50;99.90;;;;;;5076925;28;20455;-80
2023/05/27 11:44:06;;;;;;;21.92;6.13;;;16.50;99.90;;;;;;5072326;28;20029;-81
2023/05/27 11:46:43;;;;;;;25.67;6.03;;;16.50;99.90;;;;;;5068627;28;20008;-80
2023/05/27 11:49:12;;;;;;;29.05;6.57;;;16.60;99.90;;;;;;5077898;28;20033;-80
2023/05/27 11:51:42;;;;;;;27.55;6.75;;;16.50;99.90;;;;;;5074463;28;20042;-80
2023/05/27 11:54:20;;;;;;;26.02;5.68;;;16.60;99.90;;;;;;5073249;28;20055;-82
2023/05/27 11:56:47;;;;;;;21.17;5.53;;;16.60;99.90;;;;;;5078636;28;20034;-80
2023/05/27 11:59:13;;;;;;;25.27;5.30;;;16.70;99.90;;;;;;5068687;28;20020;-81
2023/05/27 12:01:40;;;;;;;12.68;4.50;;;16.70;99.90;;;;;;5088023;28;20159;-81
2023/05/27 12:04:07;;;;;;;25.67;5.18;;;16.70;99.90;;;;;;5080822;28;20028;-81
2023/05/27 12:06:32;;;;;;;23.42;5.45;;;16.70;99.90;;;;;;5092596;28;20059;-83
2023/05/27 12:08:58;;;;;;;20.27;6.03;;;16.70;99.90;;;;;;5095957;28;20500;-80
2023/05/27 12:11:24;;;;;;;24.90;5.70;;;16.80;99.90;;;;;;5088864;28;20550;-80
2023/05/27 12:13:52;;;;;;;20.02;4.97;;;16.80;99.90;;;;;;5080287;28;20034;-81
2023/05/27 12:16:18;;;;;;;18.30;5.68;;;16.80;99.90;;;;;;5087546;28;20474;-83
2023/05/27 12:18:45;;;;;;;14.45;5.60;;;16.80;99.90;;;;;;5092730;28;20081;-81
2023/05/27 12:21:11;;;;;;;17.30;4.78;;;16.90;99.90;;;;;;5085816;28;20386;-80
2023/05/27 12:23:36;;;;;;;25.25;5.75;;;17.00;99.90;;;;;;5081848;28;20024;-80
2023/05/27 12:26:02;;;;;;;15.77;5.50;;;17.00;99.90;;;;;;5089903;28;20044;-80
2023/05/27 12:28:28;;;;;;;21.98;6.28;;;17.10;99.90;;;;;;5089811;28;20055;-82
2023/05/27 12:30:53;;;;;;;21.30;5.60;;;17.00;99.90;;;;;;5091934;28;20035;-82
2023/05/27 12:33:19;;;;;;;22.20;5.65;;;17.10;99.90;;;;;;5093394;28;20046;-81
2023/05/27 12:35:44;;;;;;;26.27;6.13;;;17.10;99.90;;;;;;5098420;28;20473;-81
2023/05/27 12:38:10;;;;;;;17.42;5.22;;;17.20;99.90;;;;;;5070208;28;20024;-84
2023/05/27 12:40:36;;;;;;;23.58;6.40;;;17.30;99.90;;;;;;5089619;28;20423;-82
2023/05/27 12:43:04;;;;;;;16.83;5.22;;;17.30;99.90;;;;;;5074810;28;20047;-82
2023/05/27 12:45:31;;;;;;;19.08;5.28;;;17.30;99.90;;;;;;5093937;28;20135;-81
2023/05/27 12:47:58;;;;;;;17.88;5.93;;;17.20;99.90;;;;;;5095824;28;20032;-82